Time;durP1;ratioP1;P1;durP2;ratioP2;P2;SDS_P1;SDS_P2;PMS_P1;PMS_P2;Temp;Humidity;BMP_temperature;BMP_pressure;BME280_temperature;BME280_humidity;BME280_pressure;Samples;Min_cycle;Max_cycle;Signal;HPM_P1;HPM_P2
2023/08/10 00:04:15;;;;;;;;;;;;;;;19.46;60.44;100143.69;10372322;28;811;-70
2023/08/10 00:09:14;;;;;;;;;;;;;;;19.46;60.40;100143.69;10372024;28;1958;-70
2023/08/10 00:14:09;;;;;;;;;;;;;;;19.46;60.36;100146.34;10372164;28;921;-70
2023/08/10 00:19:05;;;;;;;;;;;;;;;19.44;60.46;100136.75;10372458;28;957;-70
2023/08/10 00:24:01;;;;;;;;;;;;;;;19.45;60.43;100136.69;10371491;28;797;-70
2023/08/10 00:28:57;;;;;;;;;;;;;;;19.45;60.41;100144.63;10369663;28;1959;-70
2023/08/10 00:33:53;;;;;;;;;;;;;;;19.45;60.49;100144.63;10370591;28;890;-70
2023/08/10 00:38:49;;;;;;;;;;;;;;;19.44;60.43;100142.03;10371133;28;1010;-70
2023/08/10 00:43:45;;;;;;;;;;;;;;;19.44;60.45;100156.16;10371380;28;811;-70
2023/08/10 00:48:41;;;;;;;;;;;;;;;19.44;60.46;100152.63;10370463;28;1943;-70
2023/08/10 00:53:37;;;;;;;;;;;;;;;19.43;60.44;100146.47;10370361;28;905;-70
2023/08/10 00:58:32;;;;;;;;;;;;;;;19.42;60.34;100142.13;10370426;28;1133;-70
2023/08/10 01:03:28;;;;;;;;;;;;;;;19.42;60.49;100144.78;10369960;28;830;-70
2023/08/10 01:08:24;;;;;;;;;;;;;;;19.42;60.47;100147.41;10370480;28;1918;-70
2023/08/10 01:13:20;;;;;;;;;;;;;;;19.41;60.47;100143.06;10370176;28;831;-70
2023/08/10 01:18:16;;;;;;;;;;;;;;;19.41;60.37;100152.75;10369913;28;916;-70
2023/08/10 01:23:12;;;;;;;;;;;;;;;19.41;60.53;100152.75;10369884;28;822;-71
2023/08/10 01:28:08;;;;;;;;;;;;;;;19.41;60.41;100158.03;10368932;28;1948;-70
2023/08/10 01:33:04;;;;;;;;;;;;;;;19.40;60.38;100165.13;10368821;28;984;-70
2023/08/10 01:38:00;;;;;;;;;;;;;;;19.39;60.34;100165.22;10369363;28;914;-70
2023/08/10 01:42:56;;;;;;;;;;;;;;;19.39;60.52;100171.34;10368193;28;855;-70
2023/08/10 01:47:52;;;;;;;;;;;;;;;19.38;60.55;100169.59;10368716;28;1961;-70
2023/08/10 01:52:47;;;;;;;;;;;;;;;19.38;60.37;100168.75;10367489;28;938;-70
2023/08/10 01:57:43;;;;;;;;;;;;;;;19.38;60.46;100171.41;10368448;28;1388;-70
2023/08/10 02:02:39;;;;;;;;;;;;;;;19.36;60.39;100174.13;10367680;28;953;-70
2023/08/10 02:07:35;;;;;;;;;;;;;;;19.36;60.48;100168.84;10368253;28;1918;-70
2023/08/10 02:12:31;;;;;;;;;;;;;;;19.37;60.40;100174.97;10367414;28;858;-70
2023/08/10 02:17:29;;;;;;;;;;;;;;;19.36;60.36;100173.25;10367999;28;823;-70
2023/08/10 02:22:24;;;;;;;;;;;;;;;19.35;60.57;100185.59;10366852;28;941;-70
2023/08/10 02:27:20;;;;;;;;;;;;;;;19.35;60.50;100180.31;10367485;28;1893;-70
2023/08/10 02:32:17;;;;;;;;;;;;;;;19.34;60.53;100178.63;10366794;28;781;-70
2023/08/10 02:37:13;;;;;;;;;;;;;;;19.33;60.25;100182.16;10366731;28;986;-70
2023/08/10 02:42:09;;;;;;;;;;;;;;;19.33;60.38;100179.53;10366482;28;799;-70
2023/08/10 02:47:05;;;;;;;;;;;;;;;19.33;60.39;100182.16;10367339;28;1960;-70
2023/08/10 02:52:00;;;;;;;;;;;;;;;19.32;60.50;100183.09;10366319;28;894;-70
2023/08/10 02:56:56;;;;;;;;;;;;;;;19.32;60.46;100180.47;10366792;28;858;-70
2023/08/10 03:01:52;;;;;;;;;;;;;;;19.31;60.46;100176.09;10365572;28;1532;-70
2023/08/10 03:06:48;;;;;;;;;;;;;;;19.31;60.63;100172.56;10366100;28;1918;-70
2023/08/10 03:11:44;;;;;;;;;;;;;;;19.31;60.46;100164.66;10366533;28;800;-70
2023/08/10 03:16:40;;;;;;;;;;;;;;;19.29;60.42;100172.66;10366545;28;939;-70
2023/08/10 03:21:36;;;;;;;;;;;;;;;19.29;60.43;100174.44;10365802;28;949;-70
2023/08/10 03:26:32;;;;;;;;;;;;;;;19.30;60.43;100179.66;10366167;28;1963;-70
2023/08/10 03:31:29;;;;;;;;;;;;;;;19.28;60.58;100176.22;10365599;28;941;-70
2023/08/10 03:36:25;;;;;;;;;;;;;;;19.28;60.56;100178.84;10365333;28;989;-70
2023/08/10 03:41:21;;;;;;;;;;;;;;;19.29;60.56;100179.75;10365386;28;793;-70
2023/08/10 03:46:16;;;;;;;;;;;;;;;19.26;60.41;100181.59;10365210;28;1960;-70
2023/08/10 03:51:12;;;;;;;;;;;;;;;19.27;60.43;100182.44;10365779;28;939;-70
2023/08/10 03:56:08;;;;;;;;;;;;;;;19.26;60.43;100180.72;10365110;28;945;-70
2023/08/10 04:01:06;;;;;;;;;;;;;;;19.26;60.43;100193.94;10365711;28;1272;-70
2023/08/10 04:06:02;;;;;;;;;;;;;;;19.25;60.53;100194.84;10370473;28;1909;-70
2023/08/10 04:10:58;;;;;;;;;;;;;;;19.24;60.48;100194.00;10372099;28;919;-70
2023/08/10 04:15:54;;;;;;;;;;;;;;;19.24;60.60;100198.44;10372471;28;811;-70
2023/08/10 04:20:50;;;;;;;;;;;;;;;19.24;60.60;100206.34;10371793;28;835;-70
2023/08/10 04:25:46;;;;;;;;;;;;;;;19.23;60.59;100215.19;10371189;28;1894;-70
2023/08/10 04:30:42;;;;;;;;;;;;;;;19.23;60.58;100212.53;10370612;28;1033;-70
2023/08/10 04:35:38;;;;;;;;;;;;;;;19.23;60.44;100212.53;10371067;28;910;-70
2023/08/10 04:40:34;;;;;;;;;;;;;;;19.21;60.49;100204.69;10370301;28;907;-70
2023/08/10 04:45:30;;;;;;;;;;;;;;;19.21;60.60;100209.13;10371386;28;854;-70
2023/08/10 04:50:25;;;;;;;;;;;;;;;19.20;60.48;100212.69;10370441;28;961;-68
2023/08/10 04:55:21;;;;;;;;;;;;;;;19.20;60.61;100223.25;10370340;28;1037;-70
2023/08/10 05:00:17;;;;;;;;;;;;;;;19.20;60.41;100228.53;10370443;28;1147;-70
2023/08/10 05:05:13;;;;;;;;;;;;;;;19.20;60.56;100228.53;10369991;28;877;-69
2023/08/10 05:10:10;;;;;;;;;;;;;;;19.19;60.59;100237.41;10369067;28;1930;-69
2023/08/10 05:15:05;;;;;;;;;;;;;;;19.26;60.53;100234.44;10369553;28;846;-70
2023/08/10 05:20:07;;;;;;;;;;;;;;;19.31;60.35;100250.13;10369740;28;779;-68
2023/08/10 05:25:04;;;;;;;;;;;;;;;19.30;60.34;100245.72;10369207;28;866;-68
2023/08/10 05:30:00;;;;;;;;;;;;;;;19.32;60.32;100246.53;10368185;28;1953;-68
2023/08/10 05:34:55;;;;;;;;;;;;;;;19.34;60.44;100243.84;10368762;28;787;-68
2023/08/10 05:39:51;;;;;;;;;;;;;;;19.33;60.33;100245.59;10369508;28;941;-68
2023/08/10 05:44:47;;;;;;;;;;;;;;;19.38;60.16;100246.25;10368574;28;815;-68
2023/08/10 05:49:43;;;;;;;;;;;;;;;19.39;60.11;100242.72;10367928;28;1898;-68
2023/08/10 05:54:39;;;;;;;;;;;;;;;19.40;60.00;100241.78;10368788;28;934;-69
2023/08/10 05:59:36;;;;;;;;;;;;;;;19.47;59.87;100235.31;10366916;28;1220;-69
2023/08/10 06:04:32;;;;;;;;;;;;;;;19.48;59.95;100246.75;10368214;28;852;-68
2023/08/10 06:09:28;;;;;;;;;;;;;;;19.48;60.05;100255.53;10367365;28;2047;-68
2023/08/10 06:14:24;;;;;;;;;;;;;;;19.45;59.89;100253.03;10367410;28;879;-71
2023/08/10 06:19:21;;;;;;;;;;;;;;;19.46;60.02;100273.25;10367165;28;878;-69
2023/08/10 06:24:16;;;;;;;;;;;;;;;19.44;59.97;100275.13;10367063;28;892;-68
2023/08/10 06:29:12;;;;;;;;;;;;;;;19.47;59.74;100274.13;10366525;28;1965;-70
2023/08/10 06:34:09;;;;;;;;;;;;;;;19.45;59.73;100266.25;10366757;28;857;-69
2023/08/10 06:39:05;;;;;;;;;;;;;;;19.45;59.85;100260.09;10366500;28;918;-67
2023/08/10 06:44:01;;;;;;;;;;;;;;;19.43;59.85;100268.09;10366421;28;969;-67
2023/08/10 06:48:57;;;;;;;;;;;;;;;19.45;60.00;100260.09;10366197;28;1935;-66
2023/08/10 06:53:53;;;;;;;;;;;;;;;19.48;59.86;100255.53;10366737;28;854;-67
2023/08/10 06:58:48;;;;;;;;;;;;;;;19.52;59.71;100260.69;10365845;28;1392;-68
2023/08/10 07:03:46;;;;;;;;;;;;;;;19.52;59.76;100263.34;10366504;28;867;-66
2023/08/10 07:08:42;;;;;;;;;;;;;;;19.56;59.63;100278.16;10366927;28;1969;-66
2023/08/10 07:13:38;;;;;;;;;;;;;;;19.57;59.56;100277.22;10365841;28;894;-66
2023/08/10 07:18:34;;;;;;;;;;;;;;;19.58;59.60;100271.03;10365199;28;1013;-69
2023/08/10 07:23:30;;;;;;;;;;;;;;;19.58;59.66;100271.88;10365259;28;859;-70
2023/08/10 07:28:26;;;;;;;;;;;;;;;19.58;59.60;100265.75;10365711;28;1893;-71
2023/08/10 07:33:22;;;;;;;;;;;;;;;19.60;59.62;100263.91;10365511;28;805;-70
2023/08/10 07:38:18;;;;;;;;;;;;;;;19.63;59.51;100274.34;10367662;28;861;-70
2023/08/10 07:43:14;;;;;;;;;;;;;;;19.63;59.46;100267.25;10372637;28;902;-70
2023/08/10 07:48:10;;;;;;;;;;;;;;;19.67;59.36;100273.28;10372530;28;1890;-70
2023/08/10 07:53:05;;;;;;;;;;;;;;;19.64;59.57;100276.03;10372857;28;868;-71
2023/08/10 07:58:01;;;;;;;;;;;;;;;19.65;59.34;100275.13;10371769;28;1479;-71
2023/08/10 08:02:57;;;;;;;;;;;;;;;19.65;59.45;100283.06;10372435;28;807;-71
2023/08/10 08:07:53;;;;;;;;;;;;;;;19.65;59.40;100277.78;10372268;28;1906;-75
2023/08/10 08:12:49;;;;;;;;;;;;;;;19.63;59.50;100276.97;10372594;28;1069;-75
2023/08/10 08:17:45;;;;;;;;;;;;;;;19.61;59.47;100287.59;10371905;28;765;-74
2023/08/10 08:22:41;;;;;;;;;;;;;;;19.63;59.59;100287.56;10371907;28;915;-74
2023/08/10 08:27:38;;;;;;;;;;;;;;;19.62;59.53;100277.88;10371853;28;1890;-75
2023/08/10 08:32:33;;;;;;;;;;;;;;;19.62;59.37;100284.06;10371232;28;989;-73
2023/08/10 08:37:29;;;;;;;;;;;;;;;19.63;59.47;100275.19;10370483;28;1029;-75
2023/08/10 08:42:25;;;;;;;;;;;;;;;19.66;59.21;100274.19;10370877;28;775;-74
2023/08/10 08:47:21;;;;;;;;;;;;;;;19.66;59.39;100269.78;10370760;28;1893;-74
2023/08/10 08:52:17;;;;;;;;;;;;;;;19.68;59.17;100264.47;10370281;28;945;-74
2023/08/10 08:57:13;;;;;;;;;;;;;;;19.68;59.28;100261.81;10369569;28;1127;-74
2023/08/10 09:02:09;;;;;;;;;;;;;;;19.69;59.29;100259.09;10369659;28;871;-75
2023/08/10 09:07:04;;;;;;;;;;;;;;;19.69;59.20;100256.44;10370535;28;1965;-75
2023/08/10 09:12:00;;;;;;;;;;;;;;;19.69;59.13;100253.78;10369654;28;949;-75
2023/08/10 09:16:56;;;;;;;;;;;;;;;19.70;59.18;100244.94;10369422;28;982;-75
2023/08/10 09:21:52;;;;;;;;;;;;;;;19.72;59.19;100251.94;10369345;28;774;-75
2023/08/10 09:26:48;;;;;;;;;;;;;;;19.74;59.04;100252.75;10369133;28;1890;-75
2023/08/10 09:31:44;;;;;;;;;;;;;;;19.76;59.03;100248.25;10369637;28;894;-75
2023/08/10 09:36:40;;;;;;;;;;;;;;;19.76;59.17;100257.03;10368898;28;918;-75
2023/08/10 09:41:36;;;;;;;;;;;;;;;19.78;59.06;100252.56;10369213;28;830;-75
2023/08/10 09:46:32;;;;;;;;;;;;;;;19.77;59.01;100258.75;10368559;28;1956;-75
2023/08/10 09:51:28;;;;;;;;;;;;;;;19.77;59.10;100256.09;10368312;28;922;-75
2023/08/10 09:56:23;;;;;;;;;;;;;;;19.78;58.87;100262.25;10368793;28;811;-75
2023/08/10 10:01:19;;;;;;;;;;;;;;;19.80;59.01;100260.41;10367657;28;1621;-75
2023/08/10 10:06:16;;;;;;;;;;;;;;;19.80;58.83;100261.25;10368264;28;1970;-75
2023/08/10 10:11:13;;;;;;;;;;;;;;;19.81;58.78;100265.63;10367384;28;997;-75
2023/08/10 10:16:09;;;;;;;;;;;;;;;19.81;58.84;100259.50;10367425;28;964;-75
2023/08/10 10:21:05;;;;;;;;;;;;;;;19.81;58.76;100249.78;10367131;28;977;-75
2023/08/10 10:26:01;;;;;;;;;;;;;;;19.82;58.95;100253.28;10366249;28;1886;-69
2023/08/10 10:30:57;;;;;;;;;;;;;;;19.82;58.85;100261.19;10366701;28;909;-71
2023/08/10 10:35:53;;;;;;;;;;;;;;;19.81;58.89;100248.91;10366585;28;827;-71
2023/08/10 10:40:49;;;;;;;;;;;;;;;19.81;58.71;100246.28;10365990;28;851;-71
2023/08/10 10:45:45;;;;;;;;;;;;;;;19.82;58.67;100234.75;10367198;28;1893;-71
2023/08/10 10:50:41;;;;;;;;;;;;;;;19.84;58.63;100230.25;10366433;28;958;-71
2023/08/10 10:55:36;;;;;;;;;;;;;;;19.85;58.78;100238.09;10348219;28;856;-69
2023/08/10 11:00:33;;;;;;;;;;;;;;;19.87;58.36;100236.25;10367008;28;1151;-69
2023/08/10 11:05:29;;;;;;;;;;;;;;;19.90;58.52;100232.63;10366032;28;858;-70
2023/08/10 11:10:25;;;;;;;;;;;;;;;19.90;58.42;100229.97;10365290;28;1905;-71
2023/08/10 11:15:20;;;;;;;;;;;;;;;19.95;58.33;100227.13;10371972;28;835;-75
2023/08/10 11:20:17;;;;;;;;;;;;;;;19.92;58.43;100231.63;10374139;28;839;-75
2023/08/10 11:25:13;;;;;;;;;;;;;;;19.92;58.66;100236.06;10373957;28;812;-75
2023/08/10 11:40:38;;;;;;;;;;;;;;;20.00;58.54;100211.91;10666913;22;2063;-70
2023/08/10 11:45:34;;;;;;;;;;;;;;;20.02;58.67;100207.41;10373264;28;865;-69
2023/08/10 11:50:30;;;;;;;;;;;;;;;20.02;58.67;100207.41;10372970;28;1902;-70
2023/08/10 11:55:26;;;;;;;;;;;;;;;20.01;58.85;100214.47;10372825;28;944;-70
2023/08/10 12:00:22;;;;;;;;;;;;;;;20.00;58.77;100215.41;10372642;28;936;-71
2023/08/10 12:05:18;;;;;;;;;;;;;;;20.05;58.75;100217.84;10372651;28;831;-71
2023/08/10 12:10:13;;;;;;;;;;;;;;;20.10;58.94;100221.16;10371674;28;1894;-70
2023/08/10 12:15:09;;;;;;;;;;;;;;;20.05;59.14;100217.84;10372330;28;988;-71
2023/08/10 12:20:05;;;;;;;;;;;;;;;20.01;59.09;100214.47;10372543;28;865;-71
2023/08/10 12:25:01;;;;;;;;;;;;;;;20.01;59.16;100216.25;10371666;28;920;-71
2023/08/10 12:29:57;;;;;;;;;;;;;;;20.00;59.32;100211.91;10372085;28;1889;-71
2023/08/10 12:34:53;;;;;;;;;;;;;;;19.98;59.18;100211.97;10371516;28;930;-71
2023/08/10 12:39:49;;;;;;;;;;;;;;;19.98;59.20;100196.09;10371795;28;1152;-71
2023/08/10 12:44:44;;;;;;;;;;;;;;;19.98;59.06;100198.75;10370992;28;781;-71
2023/08/10 12:49:40;;;;;;;;;;;;;;;19.97;59.19;100190.88;10370972;28;1971;-70
2023/08/10 12:54:36;;;;;;;;;;;;;;;19.98;59.08;100195.25;10370724;28;826;-69
2023/08/10 12:59:32;;;;;;;;;;;;;;;19.96;58.98;100197.94;10370061;28;933;-69
2023/08/10 13:04:28;;;;;;;;;;;;;;;19.96;59.01;100194.44;10369874;28;934;-70
2023/08/10 13:09:24;;;;;;;;;;;;;;;19.96;58.92;100203.22;10350891;28;1964;-69
2023/08/10 13:14:20;;;;;;;;;;;;;;;19.98;58.91;100190.81;10370121;28;768;-68
2023/08/10 13:19:17;;;;;;;;;;;;;;;20.01;58.77;100197.75;10368736;28;899;-68
2023/08/10 13:24:13;;;;;;;;;;;;;;;20.05;58.66;100201.97;10369812;28;939;-70
2023/08/10 13:29:09;;;;;;;;;;;;;;;20.06;58.79;100199.25;10368823;28;1949;-70
2023/08/10 13:34:06;;;;;;;;;;;;;;;20.01;58.91;100205.69;10368033;28;1013;-70
2023/08/10 13:39:05;;;;;;;;;;;;;;;20.03;58.80;100201.19;10368430;28;1280;-70
2023/08/10 13:44:02;;;;;;;;;;;;;;;20.05;58.83;100199.34;10368198;28;871;-70
2023/08/10 13:48:57;;;;;;;;;;;;;;;20.04;58.91;100202.88;10368409;28;1979;-71
2023/08/10 13:53:53;;;;;;;;;;;;;;;20.03;58.85;100209.13;10367949;28;940;-71
2023/08/10 13:58:49;;;;;;;;;;;;;;;20.05;58.78;100204.63;10367761;28;1571;-71
2023/08/10 14:03:45;;;;;;;;;;;;;;;20.03;58.89;100198.53;10368759;28;946;-70
2023/08/10 14:08:41;;;;;;;;;;;;;;;20.06;58.79;100203.69;10367960;28;1962;-71
2023/08/10 14:13:37;;;;;;;;;;;;;;;20.02;58.94;100210.91;10367785;28;807;-70
2023/08/10 14:18:33;;;;;;;;;;;;;;;20.00;58.91;100209.28;10367703;28;863;-67
2023/08/10 14:23:29;;;;;;;;;;;;;;;19.97;59.07;100201.47;10366929;28;863;-70
2023/08/10 14:28:24;;;;;;;;;;;;;;;19.99;59.05;100204.88;10366651;28;1954;-70
2023/08/10 14:33:20;;;;;;;;;;;;;;;19.97;59.03;100212.91;10366728;28;945;-71
2023/08/10 14:38:16;;;;;;;;;;;;;;;19.98;59.18;100213.75;10366517;28;1229;-68
2023/08/10 14:43:12;;;;;;;;;;;;;;;19.98;59.08;100211.13;10366718;28;830;-71
2023/08/10 14:48:08;;;;;;;;;;;;;;;19.97;59.27;100210.25;10365945;28;1910;-71
2023/08/10 14:53:04;;;;;;;;;;;;;;;19.95;59.16;100214.75;10366574;28;910;-70
2023/08/10 14:58:01;;;;;;;;;;;;;;;19.95;59.28;100222.69;10366472;28;968;-71
2023/08/10 15:02:57;;;;;;;;;;;;;;;19.93;59.32;100224.53;10366773;28;870;-71
2023/08/10 15:07:53;;;;;;;;;;;;;;;19.93;59.48;100235.97;10366732;28;1914;-70
2023/08/10 15:12:49;;;;;;;;;;;;;;;19.94;59.60;100228.94;10365955;28;945;-71
2023/08/10 15:17:45;;;;;;;;;;;;;;;19.97;59.38;100225.28;10365819;28;997;-70
2023/08/10 15:22:40;;;;;;;;;;;;;;;19.96;59.54;100212.97;10365848;28;819;-71
2023/08/10 15:27:36;;;;;;;;;;;;;;;19.95;59.51;100211.25;10365666;28;1901;-71
2023/08/10 15:32:32;;;;;;;;;;;;;;;19.94;59.40;100221.00;10365603;28;1066;-71
2023/08/10 15:37:32;;;;;;;;;;;;;;;19.93;59.75;100214.81;10366104;28;938;-67
2023/08/10 15:42:28;;;;;;;;;;;;;;;19.96;59.69;100218.25;10365754;28;1397;-67
2023/08/10 15:47:23;;;;;;;;;;;;;;;19.95;59.58;100217.41;10365200;28;1980;-67
2023/08/10 15:52:19;;;;;;;;;;;;;;;19.97;59.55;100204.13;10365822;28;974;-66
2023/08/10 15:57:15;;;;;;;;;;;;;;;20.00;59.35;100196.03;10365181;28;834;-67
2023/08/10 16:02:13;;;;;;;;;;;;;;;20.02;59.42;100188.91;10371841;28;893;-69
2023/08/10 16:07:09;;;;;;;;;;;;;;;20.02;59.48;100194.19;10372679;28;1948;-69
2023/08/10 16:12:05;;;;;;;;;;;;;;;20.02;59.58;100194.19;10372887;28;815;-69
2023/08/10 16:17:01;;;;;;;;;;;;;;;20.01;59.47;100195.09;10372144;28;850;-66
2023/08/10 16:21:57;;;;;;;;;;;;;;;19.98;59.50;100196.09;10372569;28;898;-69
2023/08/10 16:26:53;;;;;;;;;;;;;;;19.97;59.67;100189.09;10372195;28;1954;-69
2023/08/10 16:31:49;;;;;;;;;;;;;;;19.97;59.83;100196.19;10372104;28;879;-69
2023/08/10 16:36:45;;;;;;;;;;;;;;;19.95;59.91;100193.59;10372012;28;830;-69
2023/08/10 16:41:41;;;;;;;;;;;;;;;19.95;59.89;100183.00;10370920;28;1602;-69
2023/08/10 16:46:37;;;;;;;;;;;;;;;19.95;59.82;100184.81;10371499;28;1917;-69
2023/08/10 16:51:33;;;;;;;;;;;;;;;19.96;60.10;100189.16;10370785;28;815;-69
2023/08/10 16:56:28;;;;;;;;;;;;;;;19.94;59.92;100183.94;10370553;28;864;-69
2023/08/10 17:01:24;;;;;;;;;;;;;;;19.94;59.95;100197.19;10370548;28;851;-69
2023/08/10 17:06:20;;;;;;;;;;;;;;;19.96;60.12;100194.44;10370745;28;1898;-69
2023/08/10 17:11:17;;;;;;;;;;;;;;;19.96;60.19;100191.81;10369772;28;970;-69
2023/08/10 17:16:14;;;;;;;;;;;;;;;19.96;60.08;100195.28;10371225;28;831;-69
2023/08/10 17:21:10;;;;;;;;;;;;;;;19.95;60.29;100190.09;10370319;28;886;-69
2023/08/10 17:26:05;;;;;;;;;;;;;;;19.95;60.13;100195.38;10369304;28;1894;-69
2023/08/10 17:31:02;;;;;;;;;;;;;;;19.95;60.32;100198.88;10368598;28;898;-69
2023/08/10 17:35:58;;;;;;;;;;;;;;;19.95;60.28;100195.38;10369233;28;900;-69
2023/08/10 17:40:53;;;;;;;;;;;;;;;19.95;60.29;100201.53;10369216;28;1273;-69
2023/08/10 17:45:49;;;;;;;;;;;;;;;19.96;60.21;100200.59;10368577;28;941;-69
2023/08/10 17:50:47;;;;;;;;;;;;;;;19.95;60.42;100193.59;10368599;28;1967;-69
2023/08/10 17:55:43;;;;;;;;;;;;;;;19.96;60.45;100194.44;10368772;28;928;-69
2023/08/10 18:00:38;;;;;;;;;;;;;;;19.96;60.19;100202.38;10368181;28;781;-70
2023/08/10 18:05:34;;;;;;;;;;;;;;;19.96;60.26;100207.66;10367319;28;803;-69
2023/08/10 18:10:31;;;;;;;;;;;;;;;19.96;60.15;100212.97;10367749;28;1902;-69
2023/08/10 18:15:27;;;;;;;;;;;;;;;19.96;60.24;100212.97;10368152;28;823;-69
2023/08/10 18:20:22;;;;;;;;;;;;;;;19.97;60.23;100214.69;10367923;28;886;-69
2023/08/10 18:25:19;;;;;;;;;;;;;;;19.96;60.39;100208.53;10367174;28;893;-70
2023/08/10 18:30:15;;;;;;;;;;;;;;;19.97;60.15;100209.41;10367015;28;1897;-71
2023/08/10 18:35:11;;;;;;;;;;;;;;;19.98;60.25;100206.69;10367078;28;930;-71
2023/08/10 18:40:08;;;;;;;;;;;;;;;19.98;60.16;100201.38;10366869;28;1271;-71
2023/08/10 18:45:04;;;;;;;;;;;;;;;19.97;60.18;100210.25;10366534;28;924;-71
2023/08/10 18:49:59;;;;;;;;;;;;;;;19.96;60.24;100205.03;10367198;28;1914;-71
2023/08/10 18:54:55;;;;;;;;;;;;;;;19.96;60.12;100205.03;10367218;28;823;-70
2023/08/10 18:59:51;;;;;;;;;;;;;;;19.94;60.13;100205.13;10365952;28;1271;-69
2023/08/10 19:04:47;;;;;;;;;;;;;;;19.95;60.30;100208.63;10366214;28;967;-69
2023/08/10 19:09:43;;;;;;;;;;;;;;;19.93;60.26;100209.53;10365411;28;1901;-69
2023/08/10 19:14:39;;;;;;;;;;;;;;;19.92;60.10;100213.09;10366630;28;850;-70
2023/08/10 19:19:35;;;;;;;;;;;;;;;19.94;60.13;100215.69;10366515;28;823;-70
2023/08/10 19:24:30;;;;;;;;;;;;;;;19.92;60.19;100223.69;10365811;28;918;-70
2023/08/10 19:29:29;;;;;;;;;;;;;;;19.92;60.21;100221.03;10365636;28;1902;-70
2023/08/10 19:34:25;;;;;;;;;;;;;;;19.93;60.26;100216.59;10367497;28;799;-70
2023/08/10 19:39:20;;;;;;;;;;;;;;;19.92;60.14;100221.03;10373543;28;1106;-70
2023/08/10 19:44:16;;;;;;;;;;;;;;;19.91;60.15;100223.75;10372835;28;858;-70
2023/08/10 19:49:13;;;;;;;;;;;;;;;19.92;60.15;100236.91;10373513;28;1917;-70
2023/08/10 19:54:08;;;;;;;;;;;;;;;19.92;60.12;100236.06;10372969;28;799;-70
2023/08/10 19:59:04;;;;;;;;;;;;;;;19.91;60.14;100234.31;10373119;28;854;-70
2023/08/10 20:04:00;;;;;;;;;;;;;;;19.92;60.28;100234.28;10373352;28;977;-71
2023/08/10 20:08:56;;;;;;;;;;;;;;;19.91;60.21;100229.91;10372572;28;1897;-71
2023/08/10 20:13:52;;;;;;;;;;;;;;;19.90;60.12;100233.47;10373189;28;996;-71
2023/08/10 20:18:48;;;;;;;;;;;;;;;19.90;60.25;100238.78;10372695;28;878;-70
2023/08/10 20:23:44;;;;;;;;;;;;;;;19.90;60.05;100233.47;10372101;28;815;-70
2023/08/10 20:28:40;;;;;;;;;;;;;;;19.90;60.33;100241.41;10371082;28;1901;-70
2023/08/10 20:33:36;;;;;;;;;;;;;;;19.90;60.26;100232.63;10371741;28;1016;-70
2023/08/10 20:38:31;;;;;;;;;;;;;;;19.91;60.17;100236.97;10371657;28;1413;-71
2023/08/10 20:43:27;;;;;;;;;;;;;;;19.91;60.13;100242.25;10371351;28;973;-70
2023/08/10 20:48:23;;;;;;;;;;;;;;;19.91;60.24;100235.22;10369083;28;1894;-70
2023/08/10 20:53:19;;;;;;;;;;;;;;;19.90;60.12;100244.06;10370687;28;851;-70
2023/08/10 20:58:15;;;;;;;;;;;;;;;19.91;60.06;100250.19;10371426;28;866;-71
2023/08/10 21:03:11;;;;;;;;;;;;;;;19.91;60.20;100253.72;10371149;28;759;-70
2023/08/10 21:08:08;;;;;;;;;;;;;;;19.91;60.00;100252.84;10369499;28;1898;-71
2023/08/10 21:13:04;;;;;;;;;;;;;;;19.91;59.93;100253.72;10369892;28;985;-70
2023/08/10 21:18:00;;;;;;;;;;;;;;;19.90;59.99;100252.00;10369780;28;779;-70
2023/08/10 21:22:56;;;;;;;;;;;;;;;19.90;60.02;100252.00;10369482;28;782;-71
2023/08/10 21:27:52;;;;;;;;;;;;;;;19.91;60.07;100256.38;10369220;28;1897;-71
2023/08/10 21:32:47;;;;;;;;;;;;;;;19.91;60.00;100250.19;10369823;28;801;-70
2023/08/10 21:37:43;;;;;;;;;;;;;;;19.90;60.07;100254.63;10368937;28;982;-70
2023/08/10 21:42:40;;;;;;;;;;;;;;;19.90;60.01;100245.84;10369273;28;1313;-70
2023/08/10 21:47:36;;;;;;;;;;;;;;;19.90;60.07;100253.78;10368486;28;1922;-70
2023/08/10 21:52:32;;;;;;;;;;;;;;;19.90;59.87;100248.50;10367873;28;1190;-69
2023/08/10 21:57:27;;;;;;;;;;;;;;;19.91;60.06;100248.44;10367326;28;886;-77
2023/08/10 22:02:23;;;;;;;;;;;;;;;19.91;60.04;100256.38;10368822;28;934;-70
2023/08/10 22:07:20;;;;;;;;;;;;;;;19.91;59.88;100247.56;10367693;28;1902;-70
2023/08/10 22:12:16;;;;;;;;;;;;;;;19.90;59.93;100244.06;10367851;28;807;-70
2023/08/10 22:17:12;;;;;;;;;;;;;;;19.90;60.04;100248.50;10368152;28;818;-70
2023/08/10 22:22:12;;;;;;;;;;;;;;;19.89;59.80;100247.66;10367970;28;882;-70
2023/08/10 22:27:08;;;;;;;;;;;;;;;19.90;59.95;100243.22;10367144;28;1968;-70
2023/08/10 22:32:04;;;;;;;;;;;;;;;19.89;59.89;100237.06;10367066;28;787;-70
2023/08/10 22:36:59;;;;;;;;;;;;;;;19.90;59.92;100253.78;10367383;28;843;-70
2023/08/10 22:41:55;;;;;;;;;;;;;;;19.89;60.01;100258.22;10366659;28;1156;-70
2023/08/10 22:46:51;;;;;;;;;;;;;;;19.90;59.89;100251.16;10366566;28;1969;-70
2023/08/10 22:51:50;;;;;;;;;;;;;;;19.88;59.82;100259.13;10367020;28;815;-71
2023/08/10 22:56:47;;;;;;;;;;;;;;;19.89;59.87;100257.38;10366558;28;850;-71
2023/08/10 23:01:43;;;;;;;;;;;;;;;19.90;59.82;100262.56;10366213;28;970;-70
2023/08/10 23:06:39;;;;;;;;;;;;;;;19.88;59.97;100259.13;10366074;28;1951;-70
2023/08/10 23:11:35;;;;;;;;;;;;;;;19.87;59.93;100254.78;10372574;28;882;-70
2023/08/10 23:16:33;;;;;;;;;;;;;;;19.87;59.83;100252.13;10374481;28;993;-70
2023/08/10 23:21:29;;;;;;;;;;;;;;;19.88;59.95;100250.34;10374259;28;978;-70
2023/08/10 23:26:25;;;;;;;;;;;;;;;19.87;59.90;100252.13;10374145;28;1905;-70
2023/08/10 23:31:20;;;;;;;;;;;;;;;19.86;59.83;100253.06;10373981;28;807;-70
2023/08/10 23:36:16;;;;;;;;;;;;;;;19.85;59.91;100248.69;10374398;28;823;-71
2023/08/10 23:41:12;;;;;;;;;;;;;;;19.86;59.82;100255.72;10373867;28;1155;-71
2023/08/10 23:46:09;;;;;;;;;;;;;;;19.84;59.73;100249.63;10374097;28;965;-70
2023/08/10 23:51:05;;;;;;;;;;;;;;;19.85;59.86;100251.34;10373727;28;1906;-70
2023/08/10 23:56:01;;;;;;;;;;;;;;;19.85;59.78;100253.97;10373066;28;781;-70
